Time;durP1;ratioP1;P1;durP2;ratioP2;P2;SDS_P1;SDS_P2;PMS_P1;PMS_P2;Temp;Humidity;BMP_temperature;BMP_pressure;BME280_temperature;BME280_humidity;BME280_pressure;Samples;Min_cycle;Max_cycle;Signal;HPM_P1;HPM_P2
2020/09/28 00:01:29;;;;;;;2.05;1.70;;;;;;;19.57;63.62;99682.33;;;;-53
2020/09/28 00:04:28;;;;;;;1.71;1.60;;;;;;;19.58;63.58;99681.11;;;;-55
2020/09/28 00:07:29;;;;;;;1.87;1.71;;;;;;;19.58;63.60;99676.56;;;;-55
2020/09/28 00:10:29;;;;;;;1.78;1.68;;;;;;;19.57;63.58;99674.37;;;;-55
2020/09/28 00:13:28;;;;;;;1.77;1.66;;;;;;;19.57;63.56;99679.80;;;;-53
2020/09/28 00:16:28;;;;;;;1.70;1.60;;;;;;;19.57;63.59;99679.17;;;;-51
2020/09/28 00:19:29;;;;;;;1.73;1.63;;;;;;;19.56;63.57;99676.88;;;;-54
2020/09/28 00:22:29;;;;;;;1.70;1.60;;;;;;;19.57;63.59;99675.58;;;;-52
2020/09/28 00:25:29;;;;;;;1.81;1.71;;;;;;;19.55;63.61;99677.38;;;;-54
2020/09/28 00:28:28;;;;;;;1.88;1.75;;;;;;;19.54;63.59;99670.16;;;;-53
2020/09/28 00:31:28;;;;;;;1.68;1.58;;;;;;;19.55;63.53;99674.30;;;;-53
2020/09/28 00:34:29;;;;;;;1.63;1.53;;;;;;;19.54;63.59;99671.22;;;;-54
2020/09/28 00:37:29;;;;;;;2.04;1.57;;;;;;;19.55;63.61;99678.12;;;;-51
2020/09/28 00:40:28;;;;;;;1.67;1.57;;;;;;;19.54;63.51;99677.96;;;;-55
2020/09/28 00:43:29;;;;;;;2.15;1.65;;;;;;;19.53;63.62;99684.14;;;;-55
2020/09/28 00:46:28;;;;;;;1.63;1.53;;;;;;;19.52;63.58;99687.56;;;;-55
2020/09/28 00:49:28;;;;;;;1.70;1.60;;;;;;;19.53;63.59;99693.48;;;;-54
2020/09/28 00:52:29;;;;;;;1.77;1.67;;;;;;;19.52;63.62;99696.58;;;;-54
2020/09/28 00:55:28;;;;;;;1.67;1.57;;;;;;;19.52;63.56;99697.23;;;;-53
2020/09/28 00:58:28;;;;;;;1.79;1.60;;;;;;;19.51;63.57;99703.91;;;;-55
2020/09/28 01:01:29;;;;;;;1.66;1.56;;;;;;;19.51;63.62;99707.56;;;;-53
2020/09/28 01:04:29;;;;;;;1.72;1.62;;;;;;;19.51;63.57;99707.90;;;;-53
2020/09/28 01:07:29;;;;;;;1.60;1.50;;;;;;;19.50;63.58;99710.64;;;;-52
2020/09/28 01:10:28;;;;;;;1.52;1.42;;;;;;;19.50;63.56;99714.23;;;;-51
2020/09/28 01:13:29;;;;;;;1.65;1.55;;;;;;;19.49;63.50;99711.31;;;;-54
2020/09/28 01:16:29;;;;;;;1.64;1.54;;;;;;;19.51;63.49;99714.30;;;;-55
2020/09/28 01:19:28;;;;;;;1.60;1.50;;;;;;;19.49;63.58;99717.16;;;;-53
2020/09/28 01:22:28;;;;;;;1.68;1.58;;;;;;;19.49;63.47;99718.63;;;;-55
2020/09/28 01:25:29;;;;;;;1.70;1.60;;;;;;;19.48;63.55;99727.55;;;;-55
2020/09/28 01:28:28;;;;;;;1.70;1.60;;;;;;;19.47;63.51;99729.77;;;;-53
2020/09/28 01:31:28;;;;;;;1.67;1.57;;;;;;;19.47;63.63;99733.42;;;;-53
2020/09/28 01:34:28;;;;;;;2.04;1.52;;;;;;;19.47;63.52;99734.81;;;;-53
2020/09/28 01:37:28;;;;;;;1.61;1.51;;;;;;;19.47;63.49;99731.97;;;;-54
2020/09/28 01:40:28;;;;;;;1.59;1.49;;;;;;;19.47;63.54;99737.58;;;;-53
2020/09/28 01:43:29;;;;;;;1.70;1.60;;;;;;;19.47;63.45;99735.79;;;;-53
2020/09/28 01:46:29;;;;;;;1.60;1.50;;;;;;;19.47;63.52;99740.17;;;;-53
2020/09/28 01:49:28;;;;;;;1.58;1.48;;;;;;;19.46;63.56;99741.87;;;;-53
2020/09/28 01:52:29;;;;;;;1.63;1.53;;;;;;;19.45;63.54;99746.27;;;;-54
2020/09/28 01:55:29;;;;;;;1.59;1.49;;;;;;;19.45;63.54;99744.73;;;;-53
2020/09/28 01:58:29;;;;;;;1.55;1.45;;;;;;;19.45;63.47;99747.25;;;;-55
2020/09/28 02:01:29;;;;;;;1.65;1.55;;;;;;;19.45;63.51;99749.28;;;;-53
2020/09/28 02:04:29;;;;;;;1.65;1.40;;;;;;;19.45;63.52;99752.70;;;;-54
2020/09/28 02:07:29;;;;;;;1.59;1.49;;;;;;;19.44;63.60;99756.45;;;;-53
2020/09/28 02:10:29;;;;;;;1.97;1.64;;;;;;;19.44;63.52;99748.39;;;;-52
2020/09/28 02:13:28;;;;;;;1.65;1.55;;;;;;;19.44;63.52;99748.23;;;;-51
2020/09/28 02:16:29;;;;;;;1.59;1.49;;;;;;;19.44;63.51;99744.08;;;;-53
2020/09/28 02:19:28;;;;;;;1.49;1.39;;;;;;;19.44;63.56;99743.19;;;;-51
2020/09/28 02:22:28;;;;;;;1.54;1.44;;;;;;;19.42;63.50;99748.15;;;;-51
2020/09/28 02:25:29;;;;;;;1.49;1.39;;;;;;;19.43;63.52;99747.59;;;;-53
2020/09/28 02:28:28;;;;;;;1.65;1.55;;;;;;;19.43;63.49;99743.38;;;;-53
2020/09/28 02:31:29;;;;;;;1.57;1.47;;;;;;;19.43;63.49;99748.08;;;;-54
2020/09/28 02:34:29;;;;;;;1.49;1.39;;;;;;;19.43;63.44;99754.02;;;;-51
2020/09/28 02:37:28;;;;;;;1.62;1.52;;;;;;;19.41;63.54;99753.94;;;;-54
2020/09/28 02:40:28;;;;;;;1.53;1.43;;;;;;;19.42;63.48;99755.86;;;;-55
2020/09/28 02:43:29;;;;;;;1.50;1.40;;;;;;;19.42;63.45;99752.61;;;;-51
2020/09/28 02:46:29;;;;;;;1.66;1.56;;;;;;;19.41;63.49;99752.23;;;;-51
2020/09/28 02:49:29;;;;;;;1.51;1.41;;;;;;;19.41;63.57;99757.36;;;;-55
2020/09/28 02:52:29;;;;;;;1.60;1.50;;;;;;;19.41;63.50;99761.89;;;;-51
2020/09/28 02:55:29;;;;;;;1.71;1.39;;;;;;;19.40;63.54;99756.69;;;;-54
2020/09/28 02:58:28;;;;;;;1.40;1.30;;;;;;;19.39;63.49;99752.88;;;;-54
2020/09/28 03:01:28;;;;;;;1.50;1.40;;;;;;;19.40;63.49;99744.91;;;;-54
2020/09/28 03:04:28;;;;;;;1.50;1.40;;;;;;;19.38;63.48;99739.98;;;;-54
2020/09/28 03:07:29;;;;;;;1.45;1.35;;;;;;;19.38;63.50;99743.06;;;;-53
2020/09/28 03:10:28;;;;;;;1.51;1.41;;;;;;;19.39;63.48;99745.91;;;;-51
2020/09/28 03:13:28;;;;;;;1.50;1.40;;;;;;;19.38;63.56;99748.75;;;;-55
2020/09/28 03:16:28;;;;;;;1.41;1.31;;;;;;;19.39;63.46;99752.97;;;;-55
2020/09/28 03:19:28;;;;;;;1.54;1.44;;;;;;;19.39;63.46;99754.59;;;;-52
2020/09/28 03:22:29;;;;;;;1.48;1.38;;;;;;;19.39;63.40;99754.75;;;;-52
2020/09/28 03:25:29;;;;;;;1.50;1.40;;;;;;;19.38;63.42;99754.42;;;;-52
2020/09/28 03:28:28;;;;;;;1.50;1.40;;;;;;;19.37;63.44;99750.94;;;;-53
2020/09/28 03:31:29;;;;;;;1.45;1.35;;;;;;;19.37;63.47;99751.50;;;;-53
2020/09/28 03:34:28;;;;;;;1.41;1.31;;;;;;;19.36;63.48;99756.64;;;;-53
2020/09/28 03:37:28;;;;;;;1.50;1.40;;;;;;;19.36;63.47;99763.85;;;;-55
2020/09/28 03:40:29;;;;;;;1.49;1.39;;;;;;;19.36;63.46;99768.81;;;;-55
2020/09/28 03:43:28;;;;;;;1.49;1.39;;;;;;;19.36;63.43;99770.77;;;;-55
2020/09/28 03:46:28;;;;;;;1.45;1.35;;;;;;;19.34;63.45;99775.74;;;;-54
2020/09/28 03:49:29;;;;;;;1.53;1.43;;;;;;;19.36;63.40;99773.84;;;;-53
2020/09/28 03:52:29;;;;;;;1.47;1.37;;;;;;;19.35;63.50;99772.80;;;;-53
2020/09/28 03:55:29;;;;;;;1.39;1.29;;;;;;;19.36;63.35;99774.02;;;;-53
2020/09/28 03:58:29;;;;;;;1.46;1.36;;;;;;;19.34;63.40;99776.97;;;;-55
2020/09/28 04:01:29;;;;;;;1.42;1.31;;;;;;;19.33;63.42;99775.81;;;;-51
2020/09/28 04:04:29;;;;;;;1.40;1.30;;;;;;;19.33;63.46;99776.31;;;;-53
2020/09/28 04:07:28;;;;;;;1.42;1.32;;;;;;;19.33;63.43;99774.85;;;;-54
2020/09/28 04:10:29;;;;;;;1.43;1.33;;;;;;;19.33;63.47;99776.23;;;;-51
2020/09/28 04:13:28;;;;;;;1.51;1.41;;;;;;;19.33;63.41;99777.94;;;;-53
2020/09/28 04:16:30;;;;;;;1.41;1.30;;;;;;;19.33;63.40;99779.47;;;;-53
2020/09/28 04:19:31;;;;;;;1.47;1.37;;;;;;;19.33;63.32;99782.39;;;;-55
2020/09/28 04:22:28;;;;;;;1.49;1.39;;;;;;;19.33;63.43;99784.35;;;;-56
2020/09/28 04:25:28;;;;;;;1.39;1.29;;;;;;;19.31;63.33;99782.23;;;;-54
2020/09/28 04:28:29;;;;;;;1.50;1.40;;;;;;;19.32;63.34;99784.61;;;;-53
2020/09/28 04:31:29;;;;;;;1.40;1.30;;;;;;;19.32;63.44;99789.97;;;;-53
2020/09/28 04:34:29;;;;;;;1.50;1.40;;;;;;;19.33;63.40;99788.34;;;;-54
2020/09/28 04:37:28;;;;;;;1.47;1.37;;;;;;;19.31;63.38;99788.73;;;;-54
2020/09/28 04:40:29;;;;;;;1.45;1.35;;;;;;;19.31;63.35;99782.25;;;;-53
2020/09/28 04:43:29;;;;;;;1.40;1.30;;;;;;;19.32;63.36;99784.85;;;;-53
2020/09/28 04:46:29;;;;;;;1.52;1.40;;;;;;;19.31;63.44;99787.20;;;;-52
2020/09/28 04:49:29;;;;;;;1.40;1.30;;;;;;;19.31;63.36;99783.53;;;;-54
2020/09/28 04:52:28;;;;;;;1.37;1.27;;;;;;;19.31;63.42;99781.59;;;;-54
2020/09/28 04:55:28;;;;;;;1.49;1.39;;;;;;;19.30;63.37;99784.20;;;;-54
2020/09/28 04:58:28;;;;;;;1.45;1.35;;;;;;;19.29;63.35;99785.42;;;;-53
2020/09/28 05:01:29;;;;;;;1.33;1.23;;;;;;;19.30;63.31;99791.03;;;;-53
2020/09/28 05:04:28;;;;;;;1.31;1.21;;;;;;;19.28;63.44;99788.19;;;;-55
2020/09/28 05:07:29;;;;;;;1.43;1.33;;;;;;;19.28;63.36;99792.91;;;;-53
2020/09/28 05:10:28;;;;;;;1.49;1.39;;;;;;;19.28;63.40;99805.17;;;;-55
2020/09/28 05:13:28;;;;;;;1.40;1.30;;;;;;;19.28;63.43;99799.09;;;;-54
2020/09/28 05:16:28;;;;;;;1.42;1.32;;;;;;;19.28;63.28;99798.27;;;;-51
2020/09/28 05:19:28;;;;;;;1.34;1.24;;;;;;;19.28;63.32;99800.55;;;;-51
2020/09/28 05:22:29;;;;;;;1.28;1.20;;;;;;;19.28;63.40;99803.22;;;;-51
2020/09/28 05:25:28;;;;;;;1.33;1.25;;;;;;;19.27;63.37;99804.27;;;;-53
2020/09/28 05:28:28;;;;;;;1.49;1.39;;;;;;;19.28;63.45;99802.83;;;;-53
2020/09/28 05:31:29;;;;;;;1.45;1.35;;;;;;;19.27;63.39;99800.63;;;;-53
2020/09/28 05:34:28;;;;;;;1.41;1.31;;;;;;;19.27;63.39;99801.50;;;;-53
2020/09/28 05:37:28;;;;;;;1.30;1.20;;;;;;;19.27;63.32;99799.23;;;;-51
2020/09/28 05:40:28;;;;;;;1.35;1.25;;;;;;;19.26;63.37;99803.07;;;;-51
2020/09/28 05:43:29;;;;;;;1.50;1.40;;;;;;;19.26;63.44;99796.89;;;;-52
2020/09/28 05:46:29;;;;;;;1.24;1.20;;;;;;;19.28;63.29;99797.78;;;;-51
2020/09/28 05:49:29;;;;;;;1.50;1.40;;;;;;;19.27;63.33;99795.09;;;;-53
2020/09/28 05:52:29;;;;;;;1.29;1.21;;;;;;;19.27;63.34;99795.42;;;;-54
2020/09/28 05:55:29;;;;;;;1.40;1.30;;;;;;;19.27;63.29;99801.84;;;;-54
2020/09/28 05:58:28;;;;;;;1.40;1.30;;;;;;;19.27;63.31;99801.11;;;;-54
2020/09/28 06:01:29;;;;;;;1.40;1.30;;;;;;;19.27;63.37;99803.13;;;;-53
2020/09/28 06:04:28;;;;;;;1.31;1.23;;;;;;;19.27;63.32;99808.26;;;;-53
2020/09/28 06:07:29;;;;;;;1.35;1.25;;;;;;;19.27;63.26;99810.37;;;;-54
2020/09/28 06:10:29;;;;;;;1.40;1.30;;;;;;;19.27;63.33;99812.72;;;;-54
2020/09/28 06:13:28;;;;;;;1.30;1.20;;;;;;;19.27;63.27;99814.34;;;;-53
2020/09/28 06:16:29;;;;;;;1.26;1.18;;;;;;;19.27;63.33;99820.28;;;;-53
2020/09/28 06:19:28;;;;;;;1.40;1.30;;;;;;;19.27;63.34;99822.72;;;;-53
2020/09/28 06:22:28;;;;;;;1.33;1.23;;;;;;;19.26;63.30;99825.56;;;;-54
2020/09/28 06:25:29;;;;;;;1.33;1.23;;;;;;;19.27;63.23;99834.25;;;;-54
2020/09/28 06:28:29;;;;;;;1.31;1.22;;;;;;;19.26;63.27;99834.23;;;;-55
2020/09/28 06:31:28;;;;;;;1.32;1.23;;;;;;;19.26;63.33;99843.83;;;;-52
2020/09/28 06:34:28;;;;;;;1.35;1.25;;;;;;;19.26;63.26;99848.15;;;;-55
2020/09/28 06:37:28;;;;;;;1.16;1.16;;;;;;;19.26;63.22;99852.27;;;;-55
2020/09/28 06:40:28;;;;;;;1.47;1.37;;;;;;;19.26;63.26;99848.72;;;;-55
2020/09/28 06:43:29;;;;;;;1.45;1.35;;;;;;;19.26;63.19;99855.22;;;;-55
2020/09/28 06:46:28;;;;;;;1.45;1.35;;;;;;;19.25;63.23;99856.83;;;;-53
2020/09/28 06:49:29;;;;;;;1.40;1.30;;;;;;;19.26;63.23;99859.05;;;;-51
2020/09/28 06:52:29;;;;;;;1.35;1.25;;;;;;;19.26;63.22;99861.16;;;;-51
2020/09/28 06:55:28;;;;;;;1.48;1.38;;;;;;;19.26;63.21;99866.27;;;;-52
2020/09/28 06:58:28;;;;;;;1.40;1.30;;;;;;;19.26;63.21;99869.68;;;;-52
2020/09/28 07:01:28;;;;;;;1.23;1.15;;;;;;;19.26;63.23;99867.48;;;;-54
2020/09/28 07:04:28;;;;;;;1.39;1.29;;;;;;;19.26;63.14;99871.23;;;;-54
2020/09/28 07:07:28;;;;;;;1.40;1.30;;;;;;;19.26;63.25;99864.89;;;;-53
2020/09/28 07:10:29;;;;;;;1.33;1.23;;;;;;;19.26;63.23;99864.16;;;;-53
2020/09/28 07:13:30;;;;;;;1.30;1.20;;;;;;;19.25;63.22;99859.19;;;;-53
2020/09/28 07:16:28;;;;;;;1.33;1.23;;;;;;;19.25;63.18;99855.94;;;;-53
2020/09/28 07:19:28;;;;;;;1.25;1.17;;;;;;;19.25;63.27;99855.53;;;;-53
2020/09/28 07:22:28;;;;;;;1.33;1.23;;;;;;;19.25;63.20;99855.45;;;;-55
2020/09/28 07:25:28;;;;;;;2.51;1.22;;;;;;;19.25;63.26;99864.30;;;;-53
2020/09/28 07:28:28;;;;;;;1.30;1.20;;;;;;;19.26;63.38;99864.13;;;;-59
2020/09/28 07:31:28;;;;;;;1.49;1.32;;;;;;;19.28;63.41;99868.95;;;;-54
2020/09/28 07:34:28;;;;;;;3.01;1.29;;;;;;;19.32;63.41;99874.05;;;;-56
2020/09/28 07:37:28;;;;;;;1.81;1.20;;;;;;;19.36;63.53;99881.36;;;;-55
2020/09/28 07:40:29;;;;;;;1.89;1.20;;;;;;;19.41;63.51;99887.75;;;;-48
2020/09/28 07:43:28;;;;;;;1.30;1.20;;;;;;;19.45;63.54;99892.70;;;;-47
2020/09/28 07:46:29;;;;;;;1.35;1.25;;;;;;;19.49;63.64;99892.53;;;;-49
2020/09/28 07:49:29;;;;;;;2.67;1.30;;;;;;;19.55;63.99;99896.31;;;;-55
2020/09/28 07:52:28;;;;;;;2.56;1.28;;;;;;;19.60;63.99;99902.81;;;;-53
2020/09/28 07:55:28;;;;;;;1.96;1.20;;;;;;;19.66;63.99;99905.89;;;;-48
2020/09/28 07:58:29;;;;;;;1.22;1.12;;;;;;;19.70;63.97;99906.62;;;;-58
2020/09/28 08:06:48;;;;;;;1.30;1.20;;;;;;;19.82;64.10;99905.38;;;;-55
2020/09/28 08:09:49;;;;;;;4.25;1.29;;;;;;;19.87;63.64;99907.30;;;;-55
2020/09/28 08:12:48;;;;;;;2.56;1.30;;;;;;;19.90;63.67;99911.28;;;;-52
2020/09/28 08:15:48;;;;;;;3.00;1.18;;;;;;;19.93;63.62;99913.62;;;;-51
2020/09/28 08:18:48;;;;;;;2.39;1.29;;;;;;;19.95;63.57;99912.30;;;;-51
2020/09/28 08:21:48;;;;;;;1.33;1.23;;;;;;;19.97;63.51;99912.13;;;;-52
2020/09/28 08:24:48;;;;;;;1.35;1.25;;;;;;;20.00;63.53;99908.61;;;;-51
2020/09/28 08:27:48;;;;;;;1.15;1.15;;;;;;;20.01;63.55;99905.86;;;;-51
2020/09/28 08:30:48;;;;;;;2.79;1.24;;;;;;;20.02;63.54;99906.89;;;;-52
2020/09/28 08:33:48;;;;;;;2.38;1.25;;;;;;;20.04;63.52;99907.14;;;;-51
2020/09/28 08:36:48;;;;;;;2.29;1.35;;;;;;;20.04;63.44;99910.39;;;;-48
2020/09/28 08:39:48;;;;;;;2.87;1.37;;;;;;;20.07;63.54;99911.92;;;;-48
2020/09/28 08:42:48;;;;;;;1.40;1.20;;;;;;;20.07;63.40;99911.92;;;;-48
2020/09/28 08:45:48;;;;;;;2.41;1.25;;;;;;;20.08;63.43;99911.02;;;;-48
2020/09/28 08:48:49;;;;;;;2.03;1.26;;;;;;;20.08;63.41;99909.23;;;;-57
2020/09/28 08:51:48;;;;;;;1.77;1.29;;;;;;;20.08;63.33;99908.98;;;;-57
2020/09/28 08:54:48;;;;;;;2.04;1.24;;;;;;;20.08;63.28;99912.23;;;;-56
2020/09/28 08:57:48;;;;;;;1.36;1.23;;;;;;;20.09;63.31;99914.44;;;;-58
2020/09/28 09:00:48;;;;;;;1.57;1.20;;;;;;;20.08;63.21;99919.22;;;;-48
2020/09/28 09:03:48;;;;;;;2.59;1.18;;;;;;;20.09;63.28;99915.83;;;;-48
2020/09/28 09:06:48;;;;;;;5.69;1.45;;;;;;;20.09;63.36;99914.60;;;;-54
2020/09/28 09:09:48;;;;;;;9.49;1.44;;;;;;;20.12;63.49;99917.59;;;;-52
2020/09/28 09:12:48;;;;;;;8.92;1.45;;;;;;;20.12;63.23;99923.69;;;;-53
2020/09/28 09:15:48;;;;;;;2.55;1.41;;;;;;;20.13;63.32;99924.09;;;;-55
2020/09/28 09:18:48;;;;;;;4.59;1.44;;;;;;;20.14;62.81;99924.01;;;;-54
2020/09/28 09:21:48;;;;;;;3.92;1.31;;;;;;;20.14;63.12;99924.26;;;;-56
2020/09/28 09:24:48;;;;;;;4.33;1.50;;;;;;;20.13;63.12;99920.28;;;;-55
2020/09/28 09:27:48;;;;;;;5.31;1.48;;;;;;;20.12;63.12;99919.62;;;;-54
2020/09/28 09:30:48;;;;;;;3.82;1.50;;;;;;;20.12;63.09;99923.28;;;;-55
2020/09/28 09:33:48;;;;;;;2.59;1.40;;;;;;;20.12;63.11;99930.53;;;;-55
2020/09/28 09:36:48;;;;;;;1.98;1.29;;;;;;;20.12;63.09;99929.30;;;;-53
2020/09/28 09:39:48;;;;;;;3.80;1.50;;;;;;;20.13;63.19;99928.73;;;;-46
2020/09/28 09:42:48;;;;;;;4.67;1.44;;;;;;;20.14;63.30;99929.62;;;;-46
2020/09/28 09:45:48;;;;;;;2.85;1.48;;;;;;;20.15;63.32;99928.73;;;;-54
2020/09/28 09:48:48;;;;;;;2.33;1.47;;;;;;;20.16;63.25;99926.84;;;;-44
2020/09/28 09:51:48;;;;;;;2.61;1.37;;;;;;;20.18;63.28;99926.19;;;;-44
2020/09/28 09:54:50;;;;;;;6.15;1.59;;;;;;;20.18;63.28;99923.98;;;;-43
2020/09/28 09:57:49;;;;;;;3.90;1.54;;;;;;;20.19;63.36;99923.59;;;;-48
2020/09/28 10:00:48;;;;;;;2.55;1.49;;;;;;;20.19;63.39;99926.75;;;;-53
2020/09/28 10:03:48;;;;;;;1.62;1.31;;;;;;;20.21;63.41;99927.64;;;;-51
2020/09/28 10:06:48;;;;;;;3.11;1.40;;;;;;;20.22;63.41;99923.73;;;;-49
2020/09/28 10:09:49;;;;;;;3.89;1.23;;;;;;;20.23;63.38;99927.05;;;;-52
2020/09/28 10:12:48;;;;;;;3.33;1.39;;;;;;;20.23;63.41;99922.82;;;;-51
2020/09/28 10:15:48;;;;;;;2.17;1.34;;;;;;;20.24;63.44;99919.73;;;;-49
2020/09/28 10:18:49;;;;;;;2.15;1.20;;;;;;;20.24;63.38;99915.58;;;;-58
2020/09/28 10:21:48;;;;;;;3.11;1.52;;;;;;;20.24;63.39;99908.41;;;;-54
2020/09/28 10:24:48;;;;;;;2.25;1.31;;;;;;;20.24;63.47;99907.52;;;;-46
2020/09/28 10:27:48;;;;;;;3.90;1.29;;;;;;;20.25;63.42;99901.48;;;;-49
2020/09/28 10:30:48;;;;;;;3.73;1.33;;;;;;;20.24;63.23;99900.93;;;;-47
2020/09/28 10:33:48;;;;;;;4.30;1.40;;;;;;;20.24;63.36;99900.86;;;;-56
2020/09/28 10:36:48;;;;;;;2.45;1.30;;;;;;;20.23;63.32;99904.04;;;;-57
2020/09/28 10:39:48;;;;;;;3.39;1.38;;;;;;;20.23;63.22;99907.92;;;;-48
2020/09/28 10:42:50;;;;;;;2.41;1.37;;;;;;;20.21;63.21;99906.98;;;;-47
2020/09/28 10:45:48;;;;;;;1.81;1.31;;;;;;;20.20;63.09;99913.89;;;;-47
2020/09/28 10:48:48;;;;;;;2.52;1.30;;;;;;;20.20;63.14;99915.60;;;;-47
2020/09/28 10:51:48;;;;;;;2.27;1.40;;;;;;;20.19;63.11;99916.24;;;;-48
2020/09/28 10:54:48;;;;;;;1.99;1.43;;;;;;;20.18;63.12;99914.63;;;;-48
2020/09/28 10:57:48;;;;;;;1.51;1.39;;;;;;;20.16;63.09;99915.78;;;;-47
2020/09/28 11:00:48;;;;;;;1.76;1.32;;;;;;;20.15;63.15;99909.83;;;;-47
2020/09/28 11:03:48;;;;;;;1.79;1.33;;;;;;;20.15;63.08;99907.97;;;;-58
2020/09/28 11:06:48;;;;;;;1.35;1.24;;;;;;;20.14;63.09;99906.85;;;;-58
2020/09/28 11:09:48;;;;;;;2.37;1.34;;;;;;;20.12;63.11;99906.45;;;;-48
2020/09/28 11:12:48;;;;;;;1.48;1.30;;;;;;;20.12;63.11;99906.38;;;;-58
2020/09/28 11:15:48;;;;;;;1.98;1.25;;;;;;;20.10;63.08;99907.10;;;;-56
2020/09/28 11:18:48;;;;;;;1.36;1.26;;;;;;;20.09;63.11;99907.84;;;;-56
2020/09/28 11:21:48;;;;;;;1.91;1.20;;;;;;;20.08;63.10;99898.66;;;;-56
2020/09/28 11:24:48;;;;;;;1.37;1.21;;;;;;;20.05;63.11;99893.06;;;;-56
2020/09/28 11:27:48;;;;;;;6.62;1.57;;;;;;;20.05;63.08;99896.23;;;;-42
2020/09/28 11:30:48;;;;;;;4.93;1.58;;;;;;;20.09;63.01;99899.00;;;;-57
2020/09/28 11:33:48;;;;;;;4.89;1.40;;;;;;;20.08;63.08;99899.47;;;;-54
2020/09/28 11:36:48;;;;;;;8.05;1.87;;;;;;;20.13;63.11;99899.76;;;;-47
2020/09/28 11:39:48;;;;;;;23.08;2.79;;;;;;;20.19;63.08;99895.74;;;;-47
2020/09/28 11:47:07;;;;;;;9.36;2.07;;;;;;;20.21;63.14;99893.05;;;;-52
2020/09/28 11:50:07;;;;;;;8.40;1.83;;;;;;;20.20;63.10;99894.29;;;;-52
2020/09/28 11:53:07;;;;;;;7.83;1.86;;;;;;;20.20;63.18;99889.64;;;;-51
2020/09/28 11:56:07;;;;;;;8.91;2.09;;;;;;;20.20;63.09;99893.16;;;;-58
2020/09/28 11:59:07;;;;;;;6.66;1.86;;;;;;;20.18;63.13;99892.27;;;;-58
2020/09/28 12:02:07;;;;;;;9.91;1.84;;;;;;;20.15;63.16;99892.61;;;;-56
2020/09/28 12:05:07;;;;;;;8.93;2.06;;;;;;;20.13;63.18;99886.66;;;;-57
2020/09/28 12:08:07;;;;;;;3.33;1.71;;;;;;;20.10;63.14;99886.92;;;;-57
2020/09/28 12:11:07;;;;;;;6.60;1.87;;;;;;;20.09;63.19;99884.51;;;;-58
2020/09/28 12:14:07;;;;;;;6.33;1.90;;;;;;;20.07;63.19;99886.55;;;;-47
2020/09/28 12:17:07;;;;;;;5.90;2.01;;;;;;;20.06;63.22;99886.46;;;;-48
2020/09/28 12:20:07;;;;;;;5.51;1.70;;;;;;;20.05;63.20;99878.76;;;;-48
2020/09/28 12:23:07;;;;;;;6.40;1.83;;;;;;;20.04;63.23;99872.97;;;;-51
2020/09/28 12:26:07;;;;;;;5.75;1.85;;;;;;;20.06;63.24;99875.80;;;;-53
2020/09/28 12:29:07;;;;;;;5.72;1.73;;;;;;;20.06;63.47;99879.39;;;;-57
2020/09/28 12:32:07;;;;;;;4.32;1.82;;;;;;;20.08;63.54;99874.75;;;;-56
2020/09/28 12:35:07;;;;;;;7.05;1.71;;;;;;;20.06;63.55;99874.76;;;;-51
2020/09/28 12:38:07;;;;;;;5.14;1.75;;;;;;;20.05;63.50;99873.16;;;;-51
2020/09/28 12:41:07;;;;;;;4.49;1.70;;;;;;;20.02;63.52;99864.43;;;;-51
2020/09/28 12:44:09;;;;;;;3.28;1.50;;;;;;;20.02;63.47;99867.38;;;;-51
2020/09/28 12:47:07;;;;;;;4.81;1.61;;;;;;;20.01;63.46;99871.13;;;;-55
2020/09/28 12:50:07;;;;;;;4.13;1.62;;;;;;;19.99;63.52;99872.19;;;;-54
2020/09/28 12:53:07;;;;;;;2.91;1.69;;;;;;;19.99;63.52;99870.41;;;;-50
2020/09/28 12:56:09;;;;;;;3.87;1.67;;;;;;;19.98;63.42;99863.23;;;;-50
2020/09/28 12:59:07;;;;;;;4.99;1.57;;;;;;;19.97;63.47;99865.47;;;;-50
2020/09/28 13:02:07;;;;;;;6.61;1.69;;;;;;;19.96;63.48;99865.86;;;;-50
2020/09/28 13:05:07;;;;;;;4.72;1.59;;;;;;;19.95;63.48;99864.41;;;;-51
2020/09/28 13:08:07;;;;;;;4.67;1.69;;;;;;;19.95;63.41;99867.75;;;;-50
2020/09/28 13:11:07;;;;;;;4.54;1.58;;;;;;;19.93;63.46;99863.92;;;;-50
2020/09/28 13:14:07;;;;;;;2.77;1.50;;;;;;;19.93;63.51;99861.66;;;;-50
2020/09/28 13:17:08;;;;;;;3.65;1.61;;;;;;;19.92;63.45;99860.36;;;;-56
2020/09/28 13:20:07;;;;;;;5.13;1.73;;;;;;;19.91;63.50;99861.91;;;;-51
2020/09/28 13:23:07;;;;;;;3.02;1.51;;;;;;;19.91;63.50;99865.82;;;;-54
2020/09/28 13:26:07;;;;;;;5.23;1.67;;;;;;;19.90;63.42;99861.35;;;;-56
2020/09/28 13:29:07;;;;;;;2.73;1.48;;;;;;;19.90;63.47;99862.95;;;;-51
2020/09/28 13:32:07;;;;;;;3.89;1.45;;;;;;;19.89;63.48;99861.83;;;;-50
2020/09/28 13:35:07;;;;;;;3.38;1.59;;;;;;;19.88;63.47;99863.97;;;;-50
2020/09/28 13:38:07;;;;;;;2.27;1.50;;;;;;;19.89;63.46;99868.01;;;;-49
2020/09/28 13:41:07;;;;;;;2.73;1.53;;;;;;;19.92;63.42;99867.84;;;;-44
2020/09/28 13:44:08;;;;;;;4.50;1.81;;;;;;;19.94;63.22;99864.98;;;;-48
2020/09/28 13:47:07;;;;;;;4.19;1.59;;;;;;;19.94;63.27;99862.61;;;;-51
2020/09/28 13:50:07;;;;;;;6.95;1.73;;;;;;;19.94;63.29;99860.75;;;;-49
2020/09/28 13:53:07;;;;;;;3.11;1.79;;;;;;;19.94;63.20;99856.50;;;;-47
2020/09/28 13:56:07;;;;;;;4.18;1.59;;;;;;;19.95;63.05;99856.93;;;;-50
2020/09/28 13:59:07;;;;;;;6.40;1.79;;;;;;;19.99;62.95;99853.09;;;;-45
2020/09/28 14:02:07;;;;;;;6.99;1.87;;;;;;;19.99;63.07;99846.98;;;;-46
2020/09/28 14:05:07;;;;;;;12.43;2.13;;;;;;;20.01;63.10;99849.73;;;;-48
2020/09/28 14:08:07;;;;;;;16.86;2.29;;;;;;;20.04;63.24;99849.14;;;;-57
2020/09/28 14:11:08;;;;;;;10.70;2.19;;;;;;;20.02;63.26;99849.56;;;;-45
2020/09/28 14:14:07;;;;;;;6.58;1.95;;;;;;;20.02;63.30;99853.55;;;;-50
2020/09/28 14:17:07;;;;;;;8.63;2.12;;;;;;;20.02;63.37;99855.00;;;;-52
2020/09/28 14:20:07;;;;;;;12.45;2.41;;;;;;;20.04;63.46;99855.64;;;;-58
2020/09/28 14:23:07;;;;;;;8.38;2.15;;;;;;;20.04;63.44;99856.94;;;;-59
2020/09/28 14:26:07;;;;;;;9.87;1.93;;;;;;;20.05;63.48;99857.77;;;;-46
2020/09/28 14:29:07;;;;;;;8.72;2.07;;;;;;;20.05;63.47;99858.02;;;;-47
2020/09/28 14:32:07;;;;;;;8.79;2.02;;;;;;;20.03;63.42;99859.23;;;;-60
2020/09/28 14:35:07;;;;;;;8.02;2.05;;;;;;;20.03;63.45;99861.52;;;;-59
2020/09/28 14:38:07;;;;;;;8.47;1.99;;;;;;;20.03;63.50;99864.45;;;;-57
2020/09/28 14:41:08;;;;;;;10.76;2.15;;;;;;;20.04;63.49;99865.58;;;;-50
2020/09/28 14:44:07;;;;;;;7.06;1.95;;;;;;;20.04;63.48;99870.77;;;;-52
2020/09/28 14:47:07;;;;;;;4.21;1.87;;;;;;;20.04;63.52;99881.67;;;;-49
2020/09/28 14:50:07;;;;;;;6.36;1.92;;;;;;;20.04;63.47;99875.74;;;;-58
2020/09/28 14:53:07;;;;;;;5.59;1.97;;;;;;;20.04;63.49;99866.22;;;;-48
2020/09/28 14:56:07;;;;;;;4.40;1.74;;;;;;;20.04;63.41;99879.72;;;;-52
2020/09/28 14:59:07;;;;;;;5.81;1.89;;;;;;;20.05;63.46;99881.94;;;;-53
2020/09/28 15:02:07;;;;;;;5.55;1.80;;;;;;;20.04;63.47;99882.80;;;;-47
2020/09/28 15:05:07;;;;;;;6.89;1.86;;;;;;;20.04;63.42;99878.25;;;;-56
2020/09/28 15:08:07;;;;;;;4.95;1.74;;;;;;;20.03;63.46;99878.45;;;;-47
2020/09/28 15:11:07;;;;;;;4.06;1.87;;;;;;;20.03;63.45;99879.25;;;;-52
2020/09/28 15:14:07;;;;;;;4.91;1.85;;;;;;;20.09;63.32;99880.61;;;;-58
2020/09/28 15:17:07;;;;;;;4.03;1.69;;;;;;;20.11;63.36;99885.63;;;;-52
2020/09/28 15:20:07;;;;;;;5.73;1.85;;;;;;;20.11;63.28;99881.56;;;;-54
2020/09/28 15:23:07;;;;;;;4.39;1.69;;;;;;;20.09;63.28;99879.55;;;;-59
2020/09/28 15:26:07;;;;;;;3.69;1.63;;;;;;;20.08;63.28;99884.09;;;;-58
2020/09/28 15:29:07;;;;;;;5.90;1.77;;;;;;;20.08;63.32;99882.62;;;;-57
2020/09/28 15:32:07;;;;;;;3.61;1.80;;;;;;;20.08;63.34;99888.25;;;;-61
2020/09/28 15:35:07;;;;;;;4.02;1.75;;;;;;;20.08;63.37;99892.38;;;;-55
2020/09/28 15:38:07;;;;;;;3.93;1.70;;;;;;;20.09;63.35;99896.45;;;;-55
2020/09/28 15:41:07;;;;;;;5.13;1.76;;;;;;;20.11;63.36;99898.72;;;;-51
2020/09/28 15:44:07;;;;;;;2.61;1.65;;;;;;;20.12;63.35;99901.66;;;;-53
2020/09/28 15:47:07;;;;;;;4.11;1.75;;;;;;;20.11;63.36;99903.45;;;;-53
2020/09/28 15:50:07;;;;;;;4.84;1.85;;;;;;;20.12;63.40;99904.09;;;;-52
2020/09/28 15:53:07;;;;;;;4.28;1.67;;;;;;;20.13;63.35;99904.01;;;;-54
2020/09/28 15:56:07;;;;;;;3.65;1.66;;;;;;;20.14;63.37;99909.12;;;;-51
2020/09/28 15:59:07;;;;;;;2.19;1.61;;;;;;;20.16;63.31;99915.21;;;;-55
2020/09/28 16:02:07;;;;;;;2.73;1.50;;;;;;;20.15;63.37;99917.50;;;;-52
2020/09/28 16:05:07;;;;;;;2.77;1.62;;;;;;;20.14;63.42;99922.38;;;;-49
2020/09/28 16:08:07;;;;;;;4.61;1.69;;;;;;;20.15;63.39;99927.67;;;;-50
2020/09/28 16:11:08;;;;;;;4.89;1.71;;;;;;;20.14;63.48;99929.53;;;;-51
2020/09/28 16:14:07;;;;;;;3.83;1.50;;;;;;;20.13;63.49;99935.82;;;;-53
2020/09/28 16:17:07;;;;;;;4.35;1.74;;;;;;;20.14;63.49;99935.48;;;;-52
2020/09/28 16:20:07;;;;;;;3.09;1.54;;;;;;;20.13;63.53;99936.64;;;;-53
2020/09/28 16:23:07;;;;;;;11.98;1.93;;;;;;;20.16;63.71;99936.61;;;;-46
2020/09/28 16:26:07;;;;;;;6.09;1.86;;;;;;;20.17;63.39;99936.45;;;;-58
2020/09/28 16:29:07;;;;;;;5.80;1.72;;;;;;;20.16;63.38;99942.86;;;;-59
2020/09/28 16:32:07;;;;;;;3.75;1.76;;;;;;;20.16;63.44;99947.67;;;;-48
2020/09/28 16:35:07;;;;;;;4.99;1.69;;;;;;;20.13;63.49;99950.05;;;;-53
2020/09/28 16:38:07;;;;;;;4.65;1.74;;;;;;;20.13;63.48;99955.65;;;;-54
2020/09/28 16:41:07;;;;;;;2.85;1.67;;;;;;;20.10;63.54;99959.98;;;;-55
2020/09/28 16:44:07;;;;;;;9.14;1.89;;;;;;;20.10;63.51;99962.59;;;;-56
2020/09/28 16:47:07;;;;;;;3.77;1.60;;;;;;;20.11;63.51;99965.36;;;;-48
2020/09/28 16:50:07;;;;;;;4.45;1.56;;;;;;;20.11;63.51;99973.23;;;;-50
2020/09/28 16:53:07;;;;;;;3.37;1.63;;;;;;;20.10;63.45;99978.20;;;;-44
2020/09/28 16:56:07;;;;;;;5.37;1.57;;;;;;;20.11;63.47;99982.83;;;;-53
2020/09/28 16:59:07;;;;;;;5.98;1.59;;;;;;;20.11;63.44;99984.23;;;;-54
2020/09/28 17:02:07;;;;;;;4.87;1.83;;;;;;;20.12;63.41;99986.25;;;;-52
2020/09/28 17:05:07;;;;;;;2.57;1.60;;;;;;;20.11;63.44;99989.12;;;;-50